Time;durP1;ratioP1;P1;durP2;ratioP2;P2;SDS_P1;SDS_P2;PMS_P1;PMS_P2;Temp;Humidity;BMP_temperature;BMP_pressure;BME280_temperature;BME280_humidity;BME280_pressure;Samples;Min_cycle;Max_cycle;Signal;HPM_P1;HPM_P2
2022/03/30 00:00:04;;;;;;;9.90;2.97;;;7.00;86.80;;;;;;5009127;28;20041;-73
2022/03/30 00:02:31;;;;;;;11.18;3.45;;;6.90;86.70;;;;;;5010344;28;20131;-72
2022/03/30 00:04:56;;;;;;;26.35;3.47;;;6.90;86.80;;;;;;5010583;28;20033;-73
2022/03/30 00:07:22;;;;;;;11.85;4.93;;;6.90;87.00;;;;;;5011252;28;20026;-72
2022/03/30 00:09:47;;;;;;;11.45;3.40;;;6.80;87.10;;;;;;5010329;28;20050;-72
2022/03/30 00:12:13;;;;;;;11.20;3.45;;;6.80;87.30;;;;;;5010616;28;20125;-72
2022/03/30 00:14:39;;;;;;;15.85;3.22;;;6.70;87.50;;;;;;5010373;28;20040;-72
2022/03/30 00:17:05;;;;;;;10.98;3.13;;;6.70;87.70;;;;;;5010529;28;20038;-73
2022/03/30 00:19:31;;;;;;;11.82;3.92;;;6.70;87.90;;;;;;5010922;28;20030;-73
2022/03/30 00:21:57;;;;;;;12.50;3.20;;;6.60;88.00;;;;;;5010321;28;20030;-72
2022/03/30 00:24:23;;;;;;;15.45;3.50;;;6.60;88.20;;;;;;5010287;28;20190;-72
2022/03/30 00:26:49;;;;;;;18.13;3.42;;;6.50;88.30;;;;;;5010248;28;20026;-72
2022/03/30 00:29:14;;;;;;;13.02;2.97;;;6.50;88.40;;;;;;5010207;28;20041;-73
2022/03/30 00:31:40;;;;;;;15.48;3.67;;;6.40;88.40;;;;;;5010245;28;20105;-72
2022/03/30 00:34:06;;;;;;;14.15;3.22;;;6.40;88.80;;;;;;4993370;28;20149;-72
2022/03/30 00:36:31;;;;;;;14.52;3.53;;;6.30;88.90;;;;;;5010296;28;20030;-72
2022/03/30 00:38:57;;;;;;;10.00;3.30;;;6.20;89.20;;;;;;5009160;28;20049;-73
2022/03/30 00:41:22;;;;;;;8.63;2.88;;;6.10;89.50;;;;;;5010319;28;20147;-71
2022/03/30 00:43:48;;;;;;;15.60;3.33;;;6.10;89.50;;;;;;5010143;28;20041;-73
2022/03/30 00:46:16;;;;;;;20.65;3.70;;;6.10;89.70;;;;;;5010656;28;20427;-72
2022/03/30 00:48:42;;;;;;;9.13;2.85;;;6.10;89.70;;;;;;5010110;28;20034;-72
2022/03/30 00:51:09;;;;;;;15.05;3.53;;;6.10;89.80;;;;;;5010214;28;20430;-72
2022/03/30 00:53:34;;;;;;;13.98;3.50;;;6.10;90.00;;;;;;5010173;28;20383;-71
2022/03/30 00:56:01;;;;;;;12.90;3.47;;;6.00;90.20;;;;;;5009968;28;20057;-73
2022/03/30 00:58:27;;;;;;;8.15;3.55;;;5.80;90.30;;;;;;4992925;28;20703;-72
2022/03/30 01:00:52;;;;;;;17.17;4.60;;;5.80;90.30;;;;;;5009898;28;20130;-72
2022/03/30 01:03:19;;;;;;;14.43;3.42;;;5.80;90.40;;;;;;5009929;28;20089;-72
2022/03/30 01:05:44;;;;;;;16.38;3.97;;;5.80;90.50;;;;;;4992749;28;20415;-71
2022/03/30 01:08:10;;;;;;;9.32;2.90;;;5.70;90.50;;;;;;4992526;28;20048;-71
2022/03/30 01:10:36;;;;;;;16.83;3.47;;;5.70;90.60;;;;;;5010104;28;20026;-72
2022/03/30 01:13:03;;;;;;;20.02;4.03;;;5.60;90.60;;;;;;5012810;28;20028;-72
2022/03/30 01:15:30;;;;;;;12.40;3.50;;;5.60;90.60;;;;;;5013259;28;20529;-72
2022/03/30 01:17:56;;;;;;;9.75;3.22;;;5.70;90.70;;;;;;5013447;28;20252;-72
2022/03/30 01:20:22;;;;;;;14.10;4.15;;;5.60;90.60;;;;;;5013387;28;20394;-72
2022/03/30 01:22:49;;;;;;;22.00;4.22;;;5.60;90.70;;;;;;4996054;28;20084;-72
2022/03/30 01:25:14;;;;;;;14.35;4.22;;;5.60;90.70;;;;;;5013973;28;20109;-72
2022/03/30 01:27:40;;;;;;;13.90;5.10;;;5.60;90.70;;;;;;5013017;28;20121;-72
2022/03/30 01:33:02;;;;;;;11.38;2.80;;;5.60;90.80;;;;;;5013210;28;20438;-73
2022/03/30 01:35:28;;;;;;;19.02;3.60;;;5.60;91.10;;;;;;5018109;28;20234;-72
2022/03/30 01:37:55;;;;;;;14.05;3.70;;;5.50;90.80;;;;;;5015265;28;20057;-72
2022/03/30 01:40:21;;;;;;;17.00;4.13;;;5.50;90.90;;;;;;5015545;28;20022;-71
2022/03/30 01:42:46;;;;;;;10.23;3.05;;;5.40;91.00;;;;;;5032622;28;20413;-72
2022/03/30 01:45:15;;;;;;;10.40;2.97;;;5.40;91.00;;;;;;5032480;28;20113;-72
2022/03/30 01:48:01;;;;;;;18.48;3.28;;;5.40;91.10;;;;;;5032523;28;20041;-72
2022/03/30 01:50:29;;;;;;;20.75;3.55;;;5.40;91.10;;;;;;5031927;28;20026;-72
2022/03/30 01:52:55;;;;;;;17.50;3.47;;;5.40;91.20;;;;;;5032417;28;20432;-72
2022/03/30 01:55:21;;;;;;;13.65;3.67;;;5.40;91.20;;;;;;5015322;28;20132;-72
2022/03/30 01:57:47;;;;;;;13.48;3.80;;;5.40;91.20;;;;;;5032514;28;20094;-71
2022/03/30 02:00:15;;;;;;;12.65;3.25;;;5.40;91.20;;;;;;5032297;28;20525;-71
2022/03/30 02:02:40;;;;;;;;;;;5.30;91.20;;;;;;5032376;28;20053;-71
2022/03/30 02:05:08;;;;;;;13.13;3.33;;;5.30;91.30;;;;;;5032160;28;19980;-72
2022/03/30 02:07:37;;;;;;;11.75;3.95;;;5.20;91.40;;;;;;5032186;28;20447;-72
2022/03/30 02:10:06;;;;;;;11.90;3.15;;;5.20;91.50;;;;;;5032609;28;20071;-71
2022/03/30 02:12:31;;;;;;;17.15;3.25;;;5.20;91.60;;;;;;5032215;28;20025;-72
2022/03/30 02:14:57;;;;;;;15.57;4.70;;;5.10;91.80;;;;;;5032137;28;20080;-72
2022/03/30 02:17:25;;;;;;;12.77;4.15;;;5.10;91.60;;;;;;5032105;28;20053;-71
2022/03/30 02:19:51;;;;;;;11.65;3.60;;;5.10;91.70;;;;;;5014547;28;20026;-72
2022/03/30 02:22:16;;;;;;;16.65;3.83;;;5.00;91.80;;;;;;5032011;28;20527;-72
2022/03/30 02:24:42;;;;;;;14.55;4.60;;;4.90;91.90;;;;;;5031869;28;20495;-71
2022/03/30 02:27:08;;;;;;;16.63;3.72;;;5.00;91.90;;;;;;5031752;28;20501;-72
2022/03/30 02:29:35;;;;;;;15.75;4.10;;;5.00;91.90;;;;;;5031855;28;20052;-71
2022/03/30 02:32:01;;;;;;;14.98;3.50;;;5.00;91.80;;;;;;5014348;28;20030;-71
2022/03/30 02:34:27;;;;;;;16.27;4.35;;;5.00;91.80;;;;;;5032206;28;20363;-73
2022/03/30 02:36:53;;;;;;;10.93;3.60;;;5.00;91.80;;;;;;5031627;28;20099;-72
2022/03/30 02:39:19;;;;;;;10.85;3.22;;;4.90;91.80;;;;;;5031466;28;20238;-72
2022/03/30 02:41:46;;;;;;;13.15;4.05;;;5.00;91.90;;;;;;5014119;28;20052;-73
2022/03/30 02:44:12;;;;;;;9.57;3.28;;;4.90;91.90;;;;;;5031612;28;20059;-73
2022/03/30 02:46:39;;;;;;;12.07;3.20;;;4.90;91.90;;;;;;5031555;28;20499;-73
2022/03/30 02:49:04;;;;;;;13.50;3.17;;;4.90;91.80;;;;;;5014425;28;20378;-72
2022/03/30 02:51:31;;;;;;;12.85;3.47;;;4.80;91.90;;;;;;5031270;28;20037;-73
2022/03/30 02:53:57;;;;;;;9.10;3.03;;;4.80;91.90;;;;;;5031402;28;20038;-70
2022/03/30 02:56:23;;;;;;;9.98;2.80;;;4.80;91.90;;;;;;5031440;28;20021;-71
2022/03/30 02:58:49;;;;;;;8.45;3.42;;;4.80;92.10;;;;;;5030913;28;20025;-72
2022/03/30 03:01:14;;;;;;;19.58;4.28;;;4.80;92.00;;;;;;5031698;28;20036;-72
2022/03/30 03:03:40;;;;;;;14.88;4.05;;;4.70;92.00;;;;;;5031214;28;20045;-71
2022/03/30 03:06:06;;;;;;;9.60;3.17;;;4.70;92.00;;;;;;5031224;28;20552;-71
2022/03/30 03:08:32;;;;;;;12.63;3.00;;;4.60;92.10;;;;;;5031239;28;20132;-72
2022/03/30 03:10:58;;;;;;;11.00;3.35;;;4.60;92.20;;;;;;5030945;28;20034;-73
2022/03/30 03:13:25;;;;;;;18.50;3.33;;;4.50;92.30;;;;;;5031481;28;20029;-72
2022/03/30 03:15:51;;;;;;;21.58;4.32;;;4.50;92.30;;;;;;5031058;28;20091;-72
2022/03/30 03:18:17;;;;;;;11.65;3.33;;;4.60;92.40;;;;;;5031133;28;20022;-72
2022/03/30 03:20:44;;;;;;;5.60;3.08;;;4.50;92.50;;;;;;5030822;28;20022;-70
2022/03/30 03:23:11;;;;;;;16.30;3.30;;;4.60;92.50;;;;;;5030850;28;20029;-71
2022/03/30 03:25:39;;;;;;;12.07;3.83;;;4.60;92.40;;;;;;5030806;28;20029;-72
2022/03/30 03:28:05;;;;;;;16.70;4.30;;;4.60;92.40;;;;;;5031203;28;20058;-73
2022/03/30 03:30:31;;;;;;;19.60;3.80;;;4.60;92.30;;;;;;5013125;28;20029;-73
2022/03/30 03:32:57;;;;;;;13.52;3.95;;;4.60;92.50;;;;;;5030758;28;20492;-72
2022/03/30 03:35:23;;;;;;;15.30;3.53;;;4.50;92.60;;;;;;5029964;28;20158;-73
2022/03/30 03:37:48;;;;;;;16.63;4.13;;;4.60;92.80;;;;;;5013398;28;20022;-72
2022/03/30 03:40:17;;;;;;;24.55;4.10;;;4.60;92.60;;;;;;5013546;28;20028;-73
2022/03/30 03:42:43;;;;;;;9.23;3.88;;;4.70;92.50;;;;;;5030458;28;20033;-72
2022/03/30 03:45:09;;;;;;;18.42;3.97;;;4.70;92.50;;;;;;5030543;28;20112;-72
2022/03/30 03:47:35;;;;;;;11.52;4.03;;;4.70;92.50;;;;;;5030355;28;20033;-72
2022/03/30 03:50:02;;;;;;;16.40;3.80;;;4.70;92.50;;;;;;5018591;28;20468;-72
2022/03/30 03:52:27;;;;;;;14.80;4.20;;;4.70;92.40;;;;;;4991601;28;20046;-72
2022/03/30 03:54:53;;;;;;;15.15;4.28;;;4.60;92.70;;;;;;4991136;28;20030;-72
2022/03/30 03:57:19;;;;;;;19.02;4.47;;;4.80;92.70;;;;;;4991038;28;20061;-72
2022/03/30 03:59:44;;;;;;;14.48;3.85;;;4.70;92.70;;;;;;4990924;28;20038;-71
2022/03/30 04:02:10;;;;;;;22.52;4.18;;;4.70;92.70;;;;;;4990793;28;20049;-72
2022/03/30 04:04:37;;;;;;;15.38;4.55;;;4.70;92.80;;;;;;4990967;28;20375;-73
2022/03/30 04:07:04;;;;;;;13.30;4.10;;;4.80;92.70;;;;;;4991435;28;20049;-71
2022/03/30 04:09:29;;;;;;;17.55;5.00;;;4.90;92.70;;;;;;4990881;28;20049;-72
2022/03/30 04:11:55;;;;;;;15.48;4.25;;;4.90;92.60;;;;;;4991165;28;20030;-72
2022/03/30 04:14:21;;;;;;;10.02;4.05;;;4.90;92.70;;;;;;4990662;28;20054;-72
2022/03/30 04:16:47;;;;;;;11.98;4.13;;;5.00;92.70;;;;;;4990451;28;20110;-73
2022/03/30 04:19:15;;;;;;;19.35;4.63;;;5.10;92.50;;;;;;4991063;28;20034;-72
2022/03/30 04:21:44;;;;;;;;;;;5.10;92.60;;;;;;4991222;28;20031;-72
2022/03/30 04:24:10;;;;;;;14.27;4.55;;;5.00;92.60;;;;;;4990687;28;19916;-72
2022/03/30 04:26:36;;;;;;;10.80;4.40;;;5.00;92.70;;;;;;4990701;28;20029;-73
2022/03/30 04:29:02;;;;;;;18.05;4.60;;;5.10;92.70;;;;;;4989432;28;20381;-73
2022/03/30 04:31:28;;;;;;;13.35;4.28;;;5.20;92.70;;;;;;4991170;28;20535;-72
2022/03/30 04:33:53;;;;;;;11.05;4.38;;;5.30;92.60;;;;;;4990618;28;20118;-72
2022/03/30 04:36:20;;;;;;;14.60;4.88;;;5.30;92.60;;;;;;4989563;28;20041;-73
2022/03/30 04:38:46;;;;;;;16.13;4.65;;;5.30;92.50;;;;;;4990740;28;20550;-73
2022/03/30 04:41:11;;;;;;;17.00;5.10;;;5.30;92.50;;;;;;4990556;28;20062;-73
2022/03/30 04:43:37;;;;;;;14.95;4.35;;;5.30;92.50;;;;;;4990584;28;20085;-73
2022/03/30 04:46:06;;;;;;;13.60;4.32;;;5.30;92.60;;;;;;4992361;28;20243;-73
2022/03/30 04:48:32;;;;;;;15.23;4.28;;;5.20;92.70;;;;;;4994212;28;20035;-73
2022/03/30 04:50:58;;;;;;;14.57;4.90;;;5.20;92.80;;;;;;4994289;28;20050;-73
2022/03/30 04:53:23;;;;;;;12.85;4.60;;;5.20;92.40;;;;;;4994340;28;20455;-72
2022/03/30 04:55:49;;;;;;;19.20;5.65;;;5.40;92.40;;;;;;4994395;28;20023;-72
2022/03/30 04:58:14;;;;;;;12.20;4.78;;;5.40;92.10;;;;;;4994640;28;20027;-72
2022/03/30 05:00:41;;;;;;;13.88;5.28;;;5.30;92.60;;;;;;4994117;28;20036;-72
2022/03/30 05:03:07;;;;;;;11.70;4.97;;;5.20;92.70;;;;;;4993971;28;20492;-71
2022/03/30 05:05:32;;;;;;;17.42;5.35;;;5.10;92.80;;;;;;4994130;28;20046;-72
2022/03/30 05:07:58;;;;;;;16.98;5.03;;;5.10;93.00;;;;;;4993999;28;20045;-73
2022/03/30 05:10:24;;;;;;;13.68;4.65;;;5.10;93.00;;;;;;4993254;28;20029;-72
2022/03/30 05:12:50;;;;;;;15.93;5.28;;;5.10;93.10;;;;;;4994234;28;20088;-71
2022/03/30 05:15:16;;;;;;;26.73;5.65;;;5.10;93.10;;;;;;4993811;28;20105;-72
2022/03/30 05:17:45;;;;;;;13.27;6.00;;;5.20;93.10;;;;;;4993820;28;20108;-73
2022/03/30 05:20:15;;;;;;;13.82;4.70;;;5.20;93.00;;;;;;4993979;28;20038;-73
2022/03/30 05:22:41;;;;;;;22.98;6.22;;;5.30;93.10;;;;;;4993457;28;20022;-72
2022/03/30 05:25:08;;;;;;;21.63;5.32;;;5.40;92.90;;;;;;4993871;28;20031;-72
2022/03/30 05:27:34;;;;;;;16.45;4.70;;;5.40;93.00;;;;;;4993646;28;20026;-73
2022/03/30 05:30:02;;;;;;;22.55;4.78;;;5.50;93.00;;;;;;5009314;28;20324;-72
2022/03/30 05:32:28;;;;;;;15.10;4.45;;;5.60;93.00;;;;;;5013402;28;20037;-74
2022/03/30 05:34:53;;;;;;;26.15;5.28;;;5.60;92.80;;;;;;5003772;28;20364;-73
2022/03/30 05:37:19;;;;;;;24.77;5.47;;;5.60;92.80;;;;;;4994169;28;20081;-73
2022/03/30 05:39:45;;;;;;;17.85;4.90;;;5.70;93.00;;;;;;4992513;28;20022;-73
2022/03/30 05:42:14;;;;;;;20.02;5.40;;;5.50;93.00;;;;;;4993408;28;20100;-73
2022/03/30 05:44:40;;;;;;;9.20;5.47;;;5.60;93.10;;;;;;4993600;28;20519;-75
2022/03/30 05:47:07;;;;;;;21.63;5.25;;;5.80;93.00;;;;;;4993566;28;20068;-72
2022/03/30 05:49:37;;;;;;;12.88;4.68;;;5.90;93.30;;;;;;4993832;28;20030;-73
2022/03/30 05:52:04;;;;;;;19.45;5.95;;;6.10;92.70;;;;;;4993506;28;20031;-72
2022/03/30 05:54:30;;;;;;;15.77;4.97;;;6.10;92.60;;;;;;4993525;28;20097;-73
2022/03/30 05:57:02;;;;;;;13.27;5.10;;;6.20;92.60;;;;;;4992793;28;20431;-72
2022/03/30 05:59:32;;;;;;;17.70;4.93;;;6.20;92.50;;;;;;4993096;28;20049;-73
2022/03/30 06:01:58;;;;;;;19.00;5.43;;;6.30;92.40;;;;;;4993265;28;20033;-73
2022/03/30 06:04:26;;;;;;;12.25;4.30;;;6.40;92.40;;;;;;4993590;28;20026;-72
2022/03/30 06:06:52;;;;;;;13.45;4.85;;;6.40;92.40;;;;;;4993287;28;20027;-73
2022/03/30 06:09:18;;;;;;;12.10;5.30;;;6.40;92.50;;;;;;4993147;28;20049;-75
2022/03/30 06:11:44;;;;;;;21.13;4.82;;;6.40;92.80;;;;;;4976305;28;20502;-74
2022/03/30 06:14:10;;;;;;;16.92;5.78;;;6.30;92.80;;;;;;4993246;28;20347;-77
2022/03/30 06:16:37;;;;;;;21.83;6.95;;;6.40;92.70;;;;;;4976289;28;20447;-74
2022/03/30 06:19:03;;;;;;;16.63;5.05;;;6.30;93.10;;;;;;4992526;28;20026;-74
2022/03/30 06:21:30;;;;;;;22.05;5.03;;;6.50;92.90;;;;;;4993006;28;20034;-72
2022/03/30 06:23:56;;;;;;;22.98;6.55;;;6.70;92.40;;;;;;4992831;28;20069;-72
2022/03/30 06:26:22;;;;;;;15.15;4.10;;;6.80;92.00;;;;;;4992675;28;20030;-73
2022/03/30 06:28:49;;;;;;;14.40;4.07;;;6.90;91.70;;;;;;4992144;28;20030;-75
2022/03/30 06:31:17;;;;;;;15.05;3.38;;;7.00;91.50;;;;;;4992987;28;20022;-73
2022/03/30 06:33:47;;;;;;;;;;;7.10;91.40;;;;;;4992971;28;20660;-73
2022/03/30 06:36:13;;;;;;;13.43;4.80;;;7.20;91.00;;;;;;4992673;28;20362;-74
2022/03/30 06:38:39;;;;;;;15.90;4.20;;;7.20;90.90;;;;;;4992233;28;20197;-76
2022/03/30 06:41:07;;;;;;;19.77;6.80;;;7.30;91.00;;;;;;4992273;28;20117;-77
2022/03/30 06:43:33;;;;;;;;;;;7.30;90.90;;;;;;4976286;28;20030;-74
2022/03/30 06:45:59;;;;;;;20.30;4.00;;;7.40;90.90;;;;;;4992235;28;20369;-76
2022/03/30 06:48:24;;;;;;;17.58;5.70;;;7.40;90.90;;;;;;4992182;28;20437;-74
2022/03/30 06:50:50;;;;;;;32.30;9.85;;;7.40;91.00;;;;;;4974794;28;20027;-73
2022/03/30 06:53:15;;;;;;;15.85;4.30;;;7.40;91.00;;;;;;4992037;28;20407;-73
2022/03/30 06:55:41;;;;;;;25.02;5.00;;;7.50;90.90;;;;;;4992170;28;20026;-70
2022/03/30 06:58:07;;;;;;;14.52;3.83;;;7.60;90.70;;;;;;4992657;28;20041;-73
2022/03/30 07:00:33;;;;;;;20.52;4.60;;;7.60;90.40;;;;;;4991826;28;20456;-74
2022/03/30 07:02:59;;;;;;;15.50;4.47;;;7.80;90.30;;;;;;4991551;28;20092;-74
2022/03/30 07:05:24;;;;;;;10.65;3.13;;;7.80;90.20;;;;;;5008705;28;20174;-74
2022/03/30 07:10:35;;;;;;;13.15;3.58;;;7.90;90.00;;;;;;5011342;28;20080;-73
2022/03/30 07:13:03;;;;;;;14.25;3.30;;;8.20;89.30;;;;;;5011671;28;20093;-73
2022/03/30 07:15:30;;;;;;;26.33;3.53;;;8.30;88.40;;;;;;5011460;28;20033;-73
2022/03/30 07:17:58;;;;;;;15.45;3.08;;;8.40;87.30;;;;;;5010270;28;20036;-74
2022/03/30 07:20:25;;;;;;;12.13;2.90;;;8.40;87.30;;;;;;5010236;28;20040;-72
2022/03/30 07:22:52;;;;;;;17.25;2.72;;;8.50;86.20;;;;;;5010994;28;20033;-74
2022/03/30 07:25:22;;;;;;;13.07;2.75;;;8.60;85.60;;;;;;5011610;28;20459;-74
2022/03/30 07:27:51;;;;;;;25.92;4.60;;;8.60;85.20;;;;;;5011422;28;20102;-75
2022/03/30 07:30:18;;;;;;;15.85;2.88;;;8.60;85.30;;;;;;5010898;28;20379;-74
2022/03/30 07:32:47;;;;;;;19.27;4.20;;;8.80;85.30;;;;;;5011127;28;20037;-74
2022/03/30 07:35:15;;;;;;;9.18;2.47;;;9.00;85.30;;;;;;5011312;28;20681;-73
2022/03/30 07:37:43;;;;;;;12.75;3.45;;;8.90;84.90;;;;;;5010837;28;20026;-72
2022/03/30 07:40:12;;;;;;;16.48;3.25;;;9.00;85.20;;;;;;4993921;28;20037;-73
2022/03/30 07:42:39;;;;;;;15.77;3.83;;;9.00;83.70;;;;;;5011012;28;20029;-70
2022/03/30 07:45:06;;;;;;;14.75;3.65;;;9.10;84.20;;;;;;5010955;28;20104;-72
2022/03/30 07:47:31;;;;;;;17.00;3.88;;;9.20;84.90;;;;;;5010210;28;20053;-69
2022/03/30 07:49:58;;;;;;;13.95;3.63;;;9.20;84.70;;;;;;5010893;28;20463;-72
2022/03/30 07:52:24;;;;;;;14.00;3.47;;;9.20;84.10;;;;;;5011375;28;20029;-71
2022/03/30 07:54:51;;;;;;;11.85;3.20;;;9.30;84.00;;;;;;5011002;28;20033;-72
2022/03/30 07:57:20;;;;;;;14.20;3.50;;;9.20;83.50;;;;;;5010997;28;20088;-74
2022/03/30 07:59:45;;;;;;;21.33;4.38;;;9.30;83.40;;;;;;5011099;28;20068;-72
2022/03/30 08:02:13;;;;;;;10.95;3.30;;;9.30;82.40;;;;;;5010490;28;20287;-76
2022/03/30 08:04:38;;;;;;;21.88;3.67;;;9.40;82.20;;;;;;5010752;28;20044;-74
2022/03/30 08:07:04;;;;;;;7.90;2.80;;;9.40;82.20;;;;;;5009983;28;20124;-71
2022/03/30 08:09:30;;;;;;;15.30;3.55;;;9.40;82.30;;;;;;5010240;28;20107;-72
2022/03/30 08:11:55;;;;;;;12.73;2.88;;;9.60;81.60;;;;;;5010342;28;20050;-72
2022/03/30 08:14:21;;;;;;;16.42;3.42;;;9.70;80.50;;;;;;4993136;28;20030;-71
2022/03/30 08:16:46;;;;;;;15.32;2.70;;;9.90;80.30;;;;;;5010273;28;20018;-71
2022/03/30 08:19:12;;;;;;;19.65;5.30;;;10.00;79.40;;;;;;5010967;28;20034;-73
2022/03/30 08:24:22;;;;;;;11.45;3.47;;;10.30;78.10;;;;;;5014304;28;20131;-73
2022/03/30 08:26:48;;;;;;;10.60;3.90;;;10.30;78.00;;;;;;5014380;28;20038;-74
2022/03/30 08:29:14;;;;;;;18.63;3.83;;;10.40;77.80;;;;;;5014293;28;20038;-72
2022/03/30 08:31:40;;;;;;;13.57;2.97;;;10.60;77.30;;;;;;5014217;28;20455;-74
2022/03/30 08:34:05;;;;;;;18.33;3.33;;;10.70;76.80;;;;;;4997454;28;20076;-73
2022/03/30 08:36:31;;;;;;;21.75;3.25;;;10.90;75.40;;;;;;5013177;28;20034;-73
2022/03/30 08:38:57;;;;;;;17.33;3.20;;;10.80;74.30;;;;;;4996742;28;20026;-72
2022/03/30 08:41:23;;;;;;;31.00;5.18;;;11.00;74.20;;;;;;5014047;28;20036;-72
2022/03/30 08:43:49;;;;;;;13.95;3.95;;;10.90;73.30;;;;;;5014081;28;20030;-74
2022/03/30 08:46:15;;;;;;;19.52;3.67;;;11.00;73.60;;;;;;5014561;28;20018;-73
2022/03/30 08:48:41;;;;;;;25.33;4.50;;;11.00;73.00;;;;;;5013915;28;20428;-73
2022/03/30 08:51:08;;;;;;;21.35;4.00;;;11.10;72.60;;;;;;5013979;28;20034;-73
2022/03/30 08:53:34;;;;;;;29.10;4.90;;;11.30;72.40;;;;;;5013599;28;20030;-74
2022/03/30 08:56:00;;;;;;;18.27;4.05;;;11.50;71.70;;;;;;4996438;28;20611;-74
2022/03/30 08:58:26;;;;;;;14.30;2.92;;;11.70;71.30;;;;;;4996656;28;20113;-74
2022/03/30 09:00:52;;;;;;;11.82;2.35;;;12.00;70.70;;;;;;5012429;28;20107;-73
2022/03/30 09:03:19;;;;;;;17.20;3.95;;;12.10;69.60;;;;;;5013176;28;20081;-72
2022/03/30 09:05:45;;;;;;;9.82;2.13;;;12.40;69.20;;;;;;5012793;28;20084;-73
2022/03/30 09:08:24;;;;;;;14.30;2.50;;;12.60;68.10;;;;;;5013644;28;20038;-74
2022/03/30 09:10:52;;;;;;;14.10;2.50;;;12.50;67.40;;;;;;5013536;28;20022;-73
2022/03/30 09:13:18;;;;;;;;;;;12.50;66.90;;;;;;5014386;28;20026;-74
2022/03/30 09:15:44;;;;;;;10.60;2.22;;;12.40;67.00;;;;;;5013400;28;19923;-73
2022/03/30 09:18:11;;;;;;;7.35;1.65;;;12.40;66.50;;;;;;5013348;28;20038;-73
2022/03/30 09:20:39;;;;;;;10.75;2.40;;;12.50;66.50;;;;;;5013408;28;20088;-74
2022/03/30 09:23:07;;;;;;;8.45;1.88;;;12.40;65.70;;;;;;5013514;28;20448;-73
2022/03/30 09:25:32;;;;;;;12.40;2.07;;;12.30;65.20;;;;;;5013742;28;20037;-75
2022/03/30 09:27:59;;;;;;;13.73;2.72;;;12.20;65.00;;;;;;5013332;28;20897;-74
2022/03/30 09:30:26;;;;;;;10.55;2.15;;;12.30;65.40;;;;;;5013281;28;20041;-72
2022/03/30 09:32:54;;;;;;;16.27;2.53;;;12.40;65.60;;;;;;5012033;28;20056;-72
2022/03/30 09:35:37;;;;;;;6.05;1.50;;;12.80;65.10;;;;;;5013407;28;20341;-72
2022/03/30 09:38:08;;;;;;;7.22;1.83;;;12.90;63.20;;;;;;5013287;28;20379;-72
2022/03/30 09:40:35;;;;;;;12.90;2.67;;;13.00;63.70;;;;;;4995712;28;20105;-71
2022/03/30 09:43:13;;;;;;;7.18;2.30;;;13.10;63.20;;;;;;5013382;28;20072;-71
2022/03/30 09:45:40;;;;;;;6.63;2.00;;;13.10;62.30;;;;;;5012998;28;20363;-74
2022/03/30 09:48:22;;;;;;;12.50;2.17;;;13.10;61.60;;;;;;4995458;28;20026;-73
2022/03/30 09:50:51;;;;;;;9.38;2.60;;;13.20;61.20;;;;;;5013205;28;20460;-73
2022/03/30 09:53:20;;;;;;;12.50;3.70;;;13.30;61.30;;;;;;4995352;28;20030;-74
2022/03/30 09:55:59;;;;;;;8.35;2.20;;;13.30;61.10;;;;;;4995171;28;20025;-75
2022/03/30 09:58:30;;;;;;;12.38;2.50;;;13.60;61.00;;;;;;5013177;28;20526;-76
2022/03/30 10:01:19;;;;;;;11.25;1.80;;;14.10;60.70;;;;;;5012783;28;20034;-76
2022/03/30 10:03:53;;;;;;;12.35;2.20;;;14.60;59.20;;;;;;5012647;28;20077;-75
2022/03/30 10:06:29;;;;;;;9.55;2.22;;;15.00;58.70;;;;;;5012986;28;20468;-74
2022/03/30 10:08:57;;;;;;;7.53;1.70;;;15.50;57.50;;;;;;5012879;28;20030;-75
2022/03/30 10:11:25;;;;;;;6.03;2.25;;;15.70;56.50;;;;;;5012843;28;20022;-73
2022/03/30 10:13:55;;;;;;;10.13;2.55;;;15.60;55.70;;;;;;5012951;28;20108;-77
2022/03/30 10:16:22;;;;;;;11.90;2.17;;;15.70;55.40;;;;;;5013287;28;20021;-76
2022/03/30 10:18:49;;;;;;;8.70;2.00;;;15.80;54.90;;;;;;5012970;28;20026;-78
2022/03/30 10:21:26;;;;;;;13.65;2.53;;;15.70;54.40;;;;;;5012494;28;20038;-76
2022/03/30 10:24:10;;;;;;;11.77;2.67;;;15.50;54.20;;;;;;5012499;28;20034;-72
2022/03/30 10:26:59;;;;;;;11.50;2.72;;;15.50;54.80;;;;;;5012660;28;20109;-76
2022/03/30 10:29:27;;;;;;;12.05;2.65;;;15.50;54.90;;;;;;5012552;28;20099;-76
2022/03/30 10:32:08;;;;;;;9.45;2.40;;;15.50;54.80;;;;;;5012470;28;20112;-78
2022/03/30 10:34:48;;;;;;;8.98;2.38;;;15.60;54.60;;;;;;5012804;28;20038;-76
2022/03/30 10:37:15;;;;;;;11.25;1.80;;;15.70;54.10;;;;;;5012668;28;20049;-76
2022/03/30 10:39:54;;;;;;;8.52;2.10;;;15.80;53.80;;;;;;5012313;28;20041;-76
2022/03/30 10:42:20;;;;;;;12.73;3.20;;;15.50;54.00;;;;;;4994818;28;20022;-75
2022/03/30 10:44:58;;;;;;;12.43;2.47;;;15.20;53.60;;;;;;5011690;28;20061;-74
2022/03/30 10:47:26;;;;;;;8.75;2.28;;;15.10;54.30;;;;;;5012052;28;20034;-75
2022/03/30 10:50:00;;;;;;;6.95;1.65;;;15.20;54.30;;;;;;5011918;28;20415;-76
2022/03/30 10:52:39;;;;;;;15.48;1.98;;;15.60;54.40;;;;;;5012251;28;20046;-75
2022/03/30 10:55:14;;;;;;;10.05;2.30;;;15.90;53.50;;;;;;5010955;28;20030;-75
2022/03/30 10:57:48;;;;;;;8.70;1.90;;;16.10;53.10;;;;;;4994542;28;20550;-74
2022/03/30 11:00:29;;;;;;;10.82;2.30;;;16.10;52.30;;;;;;4994357;28;20116;-72
2022/03/30 11:03:09;;;;;;;4.20;1.20;;;15.70;52.50;;;;;;5011735;28;20046;-74
2022/03/30 11:05:36;;;;;;;5.55;1.85;;;15.90;52.00;;;;;;4994350;28;20095;-75
2022/03/30 11:08:03;;;;;;;9.20;1.73;;;16.00;51.90;;;;;;5011629;28;20041;-74
2022/03/30 11:10:47;;;;;;;5.22;2.00;;;15.70;51.60;;;;;;5012204;28;20026;-75
2022/03/30 11:13:22;;;;;;;6.82;2.00;;;15.70;51.70;;;;;;5011656;28;20471;-75
2022/03/30 11:15:59;;;;;;;10.27;2.22;;;15.70;51.30;;;;;;5011867;28;20173;-75
2022/03/30 11:18:28;;;;;;;12.23;2.63;;;15.80;51.20;;;;;;5011500;28;20030;-76
2022/03/30 11:21:11;;;;;;;8.88;1.95;;;15.60;51.00;;;;;;5011777;28;20044;-77
2022/03/30 11:23:39;;;;;;;14.45;2.50;;;15.70;51.10;;;;;;5011774;28;20038;-76
2022/03/30 11:26:05;;;;;;;9.23;2.67;;;15.80;53.30;;;;;;5010456;28;20034;-77
2022/03/30 11:28:40;;;;;;;11.35;1.80;;;15.70;51.40;;;;;;5011944;28;20040;-75
2022/03/30 11:31:22;;;;;;;7.13;1.67;;;15.60;50.90;;;;;;5011110;28;20030;-75
2022/03/30 11:34:42;;;;;;;13.27;2.20;;;15.40;50.80;;;;;;5011101;28;20037;-73
2022/03/30 11:37:08;;;;;;;30.33;12.98;;;15.40;50.70;;;;;;4970433;28;20141;-74
2022/03/30 11:39:34;;;;;;;16.58;6.00;;;15.60;50.60;;;;;;5002968;28;20029;-75
2022/03/30 11:42:00;;;;;;;4.55;2.22;;;15.60;50.60;;;;;;5011272;28;20040;-73
2022/03/30 11:47:16;;;;;;;7.95;1.92;;;15.60;50.80;;;;;;5011321;28;20040;-77
2022/03/30 11:49:51;;;;;;;8.23;2.28;;;15.50;50.90;;;;;;5011231;28;20021;-74
2022/03/30 11:52:18;;;;;;;9.25;2.17;;;15.20;51.40;;;;;;5011773;28;20026;-73
2022/03/30 11:54:49;;;;;;;10.15;2.50;;;15.10;51.90;;;;;;4993233;28;20026;-73
2022/03/30 11:57:15;;;;;;;10.60;1.80;;;15.10;52.10;;;;;;5010035;28;20088;-72
2022/03/30 11:59:41;;;;;;;7.80;2.28;;;15.10;51.80;;;;;;5010833;28;20026;-71
2022/03/30 12:02:08;;;;;;;9.73;1.80;;;15.00;51.80;;;;;;5010681;28;20038;-73
2022/03/30 12:04:34;;;;;;;10.98;1.80;;;14.80;52.30;;;;;;5011403;28;20044;-73
2022/03/30 12:07:00;;;;;;;14.77;2.50;;;14.80;52.30;;;;;;5011046;28;20046;-73
2022/03/30 12:09:25;;;;;;;8.15;2.55;;;14.60;52.30;;;;;;5010440;28;20096;-72
2022/03/30 12:11:51;;;;;;;8.27;2.28;;;14.70;52.90;;;;;;5010501;28;20034;-71
2022/03/30 12:14:27;;;;;;;6.60;2.35;;;14.60;52.40;;;;;;5010640;28;20037;-72
2022/03/30 12:16:59;;;;;;;10.20;2.13;;;14.60;52.50;;;;;;5010576;28;20468;-70
2022/03/30 12:19:24;;;;;;;9.52;2.28;;;14.70;52.50;;;;;;5011239;28;20043;-72
2022/03/30 12:21:50;;;;;;;9.45;2.28;;;14.90;52.40;;;;;;5010771;28;20034;-73
2022/03/30 12:24:22;;;;;;;9.20;2.47;;;14.90;51.80;;;;;;4993070;28;20030;-74
2022/03/30 12:26:52;;;;;;;10.40;2.33;;;14.70;52.10;;;;;;5010068;28;20038;-71
2022/03/30 12:29:17;;;;;;;12.40;2.67;;;14.60;51.80;;;;;;5010353;28;20590;-74
2022/03/30 12:31:53;;;;;;;9.25;2.60;;;14.70;51.70;;;;;;5010887;28;20523;-73
2022/03/30 12:34:21;;;;;;;6.63;2.55;;;14.60;51.80;;;;;;5011113;28;20096;-73
2022/03/30 12:36:48;;;;;;;10.35;2.53;;;14.60;51.70;;;;;;5010812;28;20034;-72
2022/03/30 12:39:15;;;;;;;12.85;2.92;;;14.50;52.30;;;;;;5010433;28;20069;-74
2022/03/30 12:41:40;;;;;;;10.85;2.67;;;14.50;52.30;;;;;;5010702;28;20463;-74
2022/03/30 12:44:06;;;;;;;7.22;1.90;;;14.60;52.00;;;;;;5010449;28;20030;-73
2022/03/30 12:46:32;;;;;;;6.50;2.42;;;14.60;51.80;;;;;;5010851;28;20084;-72
2022/03/30 12:49:06;;;;;;;8.85;2.28;;;14.60;52.10;;;;;;5010381;28;20061;-72
2022/03/30 12:51:36;;;;;;;6.43;2.40;;;14.50;52.20;;;;;;5010569;28;20034;-73
2022/03/30 12:54:07;;;;;;;8.57;2.35;;;14.50;52.30;;;;;;5010441;28;20037;-73
2022/03/30 12:56:32;;;;;;;12.73;2.42;;;14.50;52.40;;;;;;5010349;28;20045;-74
2022/03/30 12:59:01;;;;;;;8.90;2.17;;;14.30;52.50;;;;;;5010235;28;20030;-74